Marcel — ONDP — position and weather

sailwx.info

Track history (hours):
 
Tides and Currents Weather Stations Pressure Air Temp Water Temp Dewpoint Dewpoint Depression Visibility Wind Speed Wind Dir Waves Ship Positions

Marcel

Last reported at 2015-May-02 07:06 UTC. Time now 2015-May-04 00:56 UTC.
Position N 35°12' W 008°37'.

Length 88 m; draft 5.5 m.

Type: Cargo ship. MMSI: 205439000.

Date/timePositionNaut miles runAvg speedWind from/ knotsBaromVisibWave heightAir tempDewpointWater temp
2015-May-02 07:06N 35°12' W 008°37'5 9.0
2015-May-02 06:31N 35°16' W 008°40'9 9.1
2015-May-02 05:33N 35°24' W 008°45'9 9.1
2015-May-02 04:33N 35°32' W 008°51'9 9.0
2015-May-02 03:33N 35°40' W 008°57'9 8.8
2015-May-02 02:33N 35°47' W 009°02'9 9.2
2015-May-02 01:33N 35°55' W 009°08'9 9.2
2015-May-02 00:33N 36°03' W 009°13'9 9.1
2015-May-01 23:33N 36°11' W 009°19'9 8.9
2015-May-01 22:33N 36°19' W 009°25'9 9.2
2015-May-01 21:33N 36°27' W 009°30'9 9.2
2015-May-01 20:32N 36°35' W 009°36'9 8.8
2015-May-01 19:28N 36°43' W 009°42'9 8.9
2015-May-01 18:25N 36°52' W 009°44'8 9.3
2015-May-01 17:33N 37°00' W 009°45'10 9.4
2015-May-01 16:31N 37°10' W 009°47'9 9.4
2015-May-01 15:33N 37°19' W 009°49'9 9.1
2015-May-01 14:33N 37°28' W 009°51'31 9.4
2015-May-01 11:17N 37°58' W 009°56'11 9.2
2015-May-01 10:04N 38°09' W 009°59'5 9.3
2015-May-01 09:33N 38°14' W 009°60'10 9.4
2015-May-01 08:32N 38°23' W 010°01'9 9.3
2015-May-01 07:33N 38°32' W 010°03'10 9.0
2015-May-01 06:27N 38°42' W 010°05'10 9.0
2015-May-01 05:18N 38°53' W 010°05'7 8.6
2015-May-01 04:29N 38°60' W 010°05'338 6.5
2015-Apr-29 00:33N 43°47' W 006°07'9 9.3
2015-Apr-28 23:33N 43°46' W 005°54'9 9.1
2015-Apr-28 22:33N 43°45' W 005°41'11 9.2
2015-Apr-28 21:22N 43°44' W 005°27'  
Track history (hours):
 
Tides and Currents Weather Stations Pressure Air Temp Water Temp Dewpoint Dewpoint Depression Visibility Wind Speed Wind Dir Waves Ship Positions

Marcel

Last reported at 2015-May-02 07:06 UTC. Time now 2015-May-04 00:56 UTC.
Position N 35°12' W 008°37'.

Length 88 m; draft 5.5 m.

Type: Cargo ship. MMSI: 205439000.

Date/timePositionNaut miles runAvg speedWind from/ knotsBaromVisibWave heightAir tempDewpointWater temp
2015-May-02 07:06N 35°12' W 008°37'5 9.0
2015-May-02 06:31N 35°16' W 008°40'9 9.1
2015-May-02 05:33N 35°24' W 008°45'9 9.1
2015-May-02 04:33N 35°32' W 008°51'9 9.0
2015-May-02 03:33N 35°40' W 008°57'9 8.8
2015-May-02 02:33N 35°47' W 009°02'9 9.2
2015-May-02 01:33N 35°55' W 009°08'9 9.2
2015-May-02 00:33N 36°03' W 009°13'9 9.1
2015-May-01 23:33N 36°11' W 009°19'9 8.9
2015-May-01 22:33N 36°19' W 009°25'9 9.2
2015-May-01 21:33N 36°27' W 009°30'9 9.2
2015-May-01 20:32N 36°35' W 009°36'9 8.8
2015-May-01 19:28N 36°43' W 009°42'9 8.9
2015-May-01 18:25N 36°52' W 009°44'8 9.3
2015-May-01 17:33N 37°00' W 009°45'10 9.4
2015-May-01 16:31N 37°10' W 009°47'9 9.4
2015-May-01 15:33N 37°19' W 009°49'9 9.1
2015-May-01 14:33N 37°28' W 009°51'31 9.4
2015-May-01 11:17N 37°58' W 009°56'11 9.2
2015-May-01 10:04N 38°09' W 009°59'5 9.3
2015-May-01 09:33N 38°14' W 009°60'10 9.4
2015-May-01 08:32N 38°23' W 010°01'9 9.3
2015-May-01 07:33N 38°32' W 010°03'10 9.0
2015-May-01 06:27N 38°42' W 010°05'10 9.0
2015-May-01 05:18N 38°53' W 010°05'7 8.6
2015-May-01 04:29N 38°60' W 010°05'338 6.5
2015-Apr-29 00:33N 43°47' W 006°07'9 9.3
2015-Apr-28 23:33N 43°46' W 005°54'9 9.1
2015-Apr-28 22:33N 43°45' W 005°41'11 9.2
2015-Apr-28 21:22N 43°44' W 005°27'  

Dump ship's entire track history